The Little Minch, United Kingdom
Current Conditions -  °F | °C
As of 10:50 PM on Tuesday 21 Oct 2014 (Local Time) from EGPL Reporting Station
Clear Clear  
Wind Chill: 40°   Ceiling: Unl
Heat Index: 48°   Visibility: NA
Dew Point: 43°   Wind: 26mph
Humidity: 82%   Direction: 300°WNW
Pressure: 29.94"   Gusts: NA
Location:  57.5°N, 7°W
Report Text: EGPL 212150Z AUTO 30023KT //// // NCD 09/06 Q1014
Loading
Personal Weather Stations






























Interactive Weather Map
Tropical Storm Tracking
New forecast layout! Learn more

10-Day Weather Forecast

Advertisements
Track Severe Weather on mobile